Time;durP1;ratioP1;P1;durP2;ratioP2;P2;SDS_P1;SDS_P2;PMS_P1;PMS_P2;Temp;Humidity;BMP_temperature;BMP_pressure;BME280_temperature;BME280_humidity;BME280_pressure;Samples;Min_cycle;Max_cycle;Signal;HPM_P1;HPM_P2
2022/01/10 00:00:08;;;;;;;12.65;10.03;;;;;;;9.47;77.67;99787.11;1755109;81;21569;-63
2022/01/10 00:02:37;;;;;;;16.05;9.98;;;;;;;9.44;78.85;99792.67;1755130;80;20989;-60
2022/01/10 00:05:05;;;;;;;14.33;9.55;;;;;;;8.92;85.30;99799.45;1749551;81;21427;-61
2022/01/10 00:07:32;;;;;;;13.30;9.90;;;;;;;9.01;86.24;99793.94;1751677;81;21571;-73
2022/01/10 00:09:59;;;;;;;15.00;10.95;;;;;;;9.15;85.31;99791.00;1750548;81;21122;-75
2022/01/10 00:12:27;;;;;;;15.72;10.10;;;;;;;9.31;83.73;99782.14;1751911;81;20963;-60
2022/01/10 00:14:57;;;;;;;12.40;9.28;;;;;;;9.26;84.94;99785.80;1750605;80;21057;-60
2022/01/10 00:17:27;;;;;;;12.68;9.28;;;;;;;9.50;81.10;99780.70;1751083;81;21075;-72
2022/01/10 00:19:56;;;;;;;12.18;8.73;;;;;;;9.51;79.51;99786.23;1749762;80;20986;-73
2022/01/10 00:22:24;;;;;;;11.43;8.65;;;;;;;9.82;77.10;99779.87;1750333;81;22386;-63
2022/01/10 00:24:51;;;;;;;10.93;8.53;;;;;;;10.28;72.41;99785.89;1750516;81;20911;-61
2022/01/10 00:27:17;;;;;;;12.23;9.08;;;;;;;10.31;71.01;99781.60;1752414;81;20935;-60
2022/01/10 00:29:44;;;;;;;12.47;8.05;;;;;;;10.62;67.41;99775.92;1749835;81;20950;-72
2022/01/10 00:32:10;;;;;;;11.55;8.58;;;;;;;10.87;65.04;99773.11;1730186;81;21654;-63
2022/01/10 00:34:42;;;;;;;13.10;9.88;;;;;;;10.58;66.00;99768.19;1752216;81;22514;-63
2022/01/10 00:37:11;;;;;;;14.33;10.23;;;;;;;10.79;64.40;99777.17;1751425;81;20923;-61
2022/01/10 00:39:38;;;;;;;12.30;9.30;;;;;;;10.91;63.54;99774.80;1751442;81;21409;-61
2022/01/10 00:42:06;;;;;;;11.48;8.60;;;;;;;10.99;62.36;99771.23;1749397;81;22426;-62
2022/01/10 00:44:38;;;;;;;12.65;9.03;;;;;;;11.31;60.75;99767.85;1752275;81;21046;-60
2022/01/10 00:47:03;;;;;;;14.07;9.45;;;;;;;11.14;60.65;99762.73;1749782;81;21171;-62
2022/01/10 00:49:31;;;;;;;13.03;9.18;;;;;;;11.20;60.63;99754.09;1751770;81;20997;-72
2022/01/10 00:51:58;;;;;;;10.63;7.75;;;;;;;11.20;59.71;99750.98;1749722;80;22776;-61
2022/01/10 00:54:26;;;;;;;11.55;8.35;;;;;;;11.17;59.88;99755.79;1752031;81;21074;-61
2022/01/10 00:56:53;;;;;;;13.55;9.15;;;;;;;11.01;60.32;99750.45;1750419;81;20999;-61
2022/01/10 00:59:19;;;;;;;13.38;8.98;;;;;;;10.95;60.87;99745.54;1751830;81;21212;-71
2022/01/10 01:01:46;;;;;;;11.48;7.72;;;;;;;11.18;59.41;99734.73;1750345;81;20998;-63
2022/01/10 01:04:15;;;;;;;12.20;9.00;;;;;;;10.54;59.63;99735.70;1755144;80;20975;-61
2022/01/10 01:06:42;;;;;;;14.23;9.13;;;;;;;9.98;66.83;99746.52;1756790;81;21053;-62
2022/01/10 01:09:15;;;;;;;13.72;8.95;;;;;;;9.84;68.33;99736.22;1757997;81;20991;-72
2022/01/10 01:14:48;;;;;;;14.25;9.80;;;;;;;10.02;69.59;99727.92;1742385;81;20081;-60
2022/01/10 01:17:10;;;;;;;11.43;8.80;;;;;;;9.81;69.28;99717.06;1751070;81;21778;-63
2022/01/10 01:24:58;;;;;;;15.25;10.05;;;;;;;9.97;66.33;99718.88;1756594;80;21119;-61
2022/01/10 01:27:24;;;;;;;14.18;9.20;;;;;;;10.61;65.27;99710.47;1757571;81;21067;-62
2022/01/10 01:29:51;;;;;;;18.23;9.15;;;;;;;10.86;62.55;99708.09;1757760;81;20994;-61
2022/01/10 01:32:19;;;;;;;14.50;9.88;;;;;;;10.72;62.57;99705.98;1757412;81;21512;-61
2022/01/10 01:34:48;;;;;;;15.65;11.50;;;;;;;10.80;62.28;99711.02;1721707;83;21535;-72
2022/01/10 01:37:15;;;;;;;16.62;10.80;;;;;;;10.96;60.44;99718.95;1711024;82;21160;-60
2022/01/10 01:39:41;;;;;;;13.62;9.93;;;;;;;10.87;61.32;99722.27;1757804;81;20986;-62
2022/01/10 01:42:32;;;;;;;13.88;9.53;;;;;;;11.19;59.70;99719.37;1758002;81;21123;-62
2022/01/10 01:44:48;;;;;;;18.15;10.20;;;;;;;11.13;59.45;99722.77;1751300;81;21489;-71
2022/01/10 01:47:15;;;;;;;15.72;9.18;;;;;;;10.74;61.24;99722.22;1757462;81;21072;-61
2022/01/10 01:49:43;;;;;;;14.20;8.05;;;;;;;10.81;61.28;99727.45;1757239;81;21177;-62
2022/01/10 01:52:10;;;;;;;13.70;9.83;;;;;;;10.86;60.01;99724.55;1703167;83;21001;-62
2022/01/10 01:54:37;;;;;;;15.53;9.35;;;;;;;10.88;59.92;99718.64;1757595;81;21053;-73
2022/01/10 01:57:04;;;;;;;13.35;8.38;;;;;;;11.02;59.76;99706.91;1755920;80;21095;-62
2022/01/10 01:59:36;;;;;;;15.03;9.03;;;;;;;10.94;59.47;99715.73;1757946;81;21108;-62
2022/01/10 02:02:03;;;;;;;;;;;;;;;11.13;58.88;99712.84;1759409;81;21126;-61
2022/01/10 02:04:30;;;;;;;13.98;9.33;;;;;;;11.37;57.28;99710.16;1757805;80;20201;-71
2022/01/10 02:06:58;;;;;;;15.40;10.20;;;;;;;11.14;58.04;99713.16;1754877;81;22207;-60
2022/01/10 02:09:24;;;;;;;21.07;10.80;;;;;;;11.20;57.96;99718.87;1757351;80;21072;-62
2022/01/10 02:11:51;;;;;;;14.98;9.78;;;;;;;11.27;57.53;99712.36;1755978;81;21042;-63
2022/01/10 02:14:21;;;;;;;14.10;9.60;;;;;;;11.59;56.76;99700.28;1757240;81;21159;-70
2022/01/10 02:16:54;;;;;;;15.18;9.45;;;;;;;11.40;56.40;99702.73;1755557;81;21045;-69
2022/01/10 02:19:20;;;;;;;10.60;8.73;;;;;;;11.26;56.87;99697.21;1755728;81;21132;-65
2022/01/10 02:21:47;;;;;;;11.83;8.43;;;;;;;10.79;58.79;99702.87;1756584;81;21029;-62
2022/01/10 02:24:13;;;;;;;11.65;8.45;;;;;;;11.15;58.07;99699.91;1758700;81;21033;-62
2022/01/10 02:26:40;;;;;;;11.97;8.85;;;;;;;11.04;58.09;99694.49;1756115;81;21148;-72
2022/01/10 02:29:07;;;;;;;12.13;8.23;;;;;;;11.17;57.08;99685.35;1756207;81;21009;-62
2022/01/10 02:31:35;;;;;;;14.43;8.38;;;;;;;11.24;57.75;99690.58;1758099;81;20923;-62
2022/01/10 02:34:04;;;;;;;15.78;10.20;;;;;;;10.93;57.24;99686.25;1755916;80;20971;-61
2022/01/10 02:36:33;;;;;;;15.32;9.90;;;;;;;11.11;57.94;99689.58;1757260;81;21485;-73
2022/01/10 02:39:07;;;;;;;13.28;9.50;;;;;;;11.72;56.22;99687.73;1756839;81;21127;-62
2022/01/10 02:41:37;;;;;;;13.95;9.63;;;;;;;11.09;57.15;99698.59;1757648;81;21532;-61
2022/01/10 02:44:09;;;;;;;16.27;10.28;;;;;;;11.55;57.12;99695.17;1755517;81;21004;-74
2022/01/10 02:46:39;;;;;;;;;;;;;;;11.35;56.91;99692.08;1760082;81;20970;-62
2022/01/10 02:49:13;;;;;;;14.65;9.23;;;;;;;11.27;56.62;99692.28;1756527;80;20114;-61
2022/01/10 02:51:41;;;;;;;16.67;10.32;;;;;;;11.56;55.14;99691.58;1757107;81;21788;-61
2022/01/10 02:54:08;;;;;;;16.73;10.60;;;;;;;11.54;55.46;99693.06;1755900;81;20891;-72
2022/01/10 02:56:47;;;;;;;14.53;9.88;;;;;;;11.50;55.18;99693.17;1757490;80;21124;-61
2022/01/10 02:59:18;;;;;;;12.63;9.43;;;;;;;11.77;54.59;99699.66;1757513;81;21042;-62
2022/01/10 03:01:45;;;;;;;17.50;11.48;;;;;;;11.91;53.91;99690.82;1756666;81;21477;-72
2022/01/10 03:04:12;;;;;;;15.75;9.25;;;;;;;12.37;52.58;99688.02;1737300;81;21104;-62
2022/01/10 03:06:39;;;;;;;15.25;9.65;;;;;;;12.26;52.29;99678.22;1758424;81;21453;-64
2022/01/10 03:09:07;;;;;;;14.65;11.25;;;;;;;12.65;51.43;99677.23;1757006;81;21434;-62
2022/01/10 03:11:36;;;;;;;22.73;14.50;;;;;;;12.29;51.68;99684.86;1758402;80;21009;-61
2022/01/10 03:14:06;;;;;;;18.77;13.93;;;;;;;12.09;52.13;99682.33;1754155;81;20983;-61
2022/01/10 03:16:33;;;;;;;29.65;19.98;;;;;;;11.47;53.42;99685.73;1757892;81;21193;-61
2022/01/10 03:19:00;;;;;;;25.88;19.15;;;;;;;11.33;54.44;99688.88;1756487;81;21039;-61
2022/01/10 03:21:26;;;;;;;18.37;13.30;;;;;;;11.60;53.89;99686.25;1757686;81;21046;-60
2022/01/10 03:23:53;;;;;;;17.35;10.88;;;;;;;11.44;54.52;99690.88;1756228;81;20935;-72
2022/01/10 03:26:21;;;;;;;14.13;9.63;;;;;;;11.59;54.24;99692.45;1757273;80;21009;-62
2022/01/10 03:28:51;;;;;;;17.15;10.85;;;;;;;11.81;53.77;99682.57;1756630;81;21151;-60
2022/01/10 03:31:18;;;;;;;14.15;9.35;;;;;;;11.68;53.71;99682.91;1758159;80;20993;-60
2022/01/10 03:33:45;;;;;;;14.55;9.75;;;;;;;11.44;54.18;99691.39;1755353;80;20959;-65
2022/01/10 03:36:13;;;;;;;13.88;9.18;;;;;;;11.08;55.11;99690.48;1747082;81;21028;-67
2022/01/10 03:38:41;;;;;;;14.03;9.78;;;;;;;10.98;56.41;99690.06;1748006;81;21057;-61
2022/01/10 03:41:10;;;;;;;15.75;9.33;;;;;;;11.24;56.39;99682.75;1758176;81;21151;-61
2022/01/10 03:43:37;;;;;;;13.45;8.53;;;;;;;11.41;55.72;99691.78;1756732;81;21023;-72
2022/01/10 03:46:06;;;;;;;12.82;8.85;;;;;;;11.50;55.32;99692.38;1754002;80;21119;-61
2022/01/10 03:48:34;;;;;;;19.70;11.65;;;;;;;11.61;54.55;99680.81;1757802;81;21069;-61
2022/01/10 03:51:01;;;;;;;19.23;12.15;;;;;;;11.58;54.41;99685.62;1756858;81;21597;-61
2022/01/10 03:53:30;;;;;;;14.30;10.45;;;;;;;11.88;54.07;99680.78;1726017;81;22215;-64
2022/01/10 03:55:56;;;;;;;14.20;9.23;;;;;;;12.08;52.61;99685.94;1757112;80;20998;-72
2022/01/10 03:58:23;;;;;;;14.47;10.50;;;;;;;11.65;53.43;99687.73;1757256;81;21496;-63
2022/01/10 04:00:50;;;;;;;17.50;11.70;;;;;;;11.68;53.99;99694.66;1732860;80;21138;-61
2022/01/10 04:03:19;;;;;;;13.88;10.28;;;;;;;11.84;53.44;99690.03;1667297;84;20945;-61
2022/01/10 04:05:50;;;;;;;15.53;9.80;;;;;;;11.85;53.53;99691.13;1665033;85;22292;-61
2022/01/10 04:08:19;;;;;;;13.50;10.63;;;;;;;11.57;53.93;99689.25;1666622;84;21122;-64
2022/01/10 04:10:47;;;;;;;13.30;9.50;;;;;;;11.49;54.37;99696.80;1664817;85;21261;-64
2022/01/10 04:13:14;;;;;;;12.68;9.53;;;;;;;12.16;53.40;99700.09;1666567;84;21064;-63
2022/01/10 04:15:41;;;;;;;12.43;9.20;;;;;;;12.39;52.17;99696.98;1666501;85;21573;-63
2022/01/10 04:18:07;;;;;;;13.25;9.38;;;;;;;12.38;51.82;99699.28;1666462;84;21185;-63
2022/01/10 04:20:36;;;;;;;14.38;9.90;;;;;;;12.70;50.67;99693.59;1665505;84;21095;-64
2022/01/10 04:23:03;;;;;;;14.83;9.93;;;;;;;12.58;50.77;99688.23;1666572;84;21012;-62
2022/01/10 04:25:31;;;;;;;21.62;14.85;;;;;;;12.42;51.10;99693.92;1667207;84;21016;-65
2022/01/10 04:27:59;;;;;;;25.70;18.17;;;;;;;12.59;50.73;99689.83;1666752;85;21225;-62
2022/01/10 04:30:32;;;;;;;21.87;15.03;;;;;;;12.66;50.44;99696.34;1666924;84;21248;-63
2022/01/10 04:33:00;;;;;;;16.75;12.50;;;;;;;12.90;49.82;99696.87;1666653;84;21100;-62
2022/01/10 04:35:27;;;;;;;15.95;11.20;;;;;;;12.95;49.36;99705.90;1666959;85;21075;-63
2022/01/10 04:37:54;;;;;;;17.42;11.85;;;;;;;12.60;50.09;99705.01;1666599;84;22196;-63
2022/01/10 04:40:21;;;;;;;14.38;10.90;;;;;;;12.47;50.55;99707.70;1667524;85;21558;-71
2022/01/10 04:42:47;;;;;;;13.28;9.68;;;;;;;12.62;50.62;99708.23;1666503;85;21547;-63
2022/01/10 04:45:14;;;;;;;12.63;9.65;;;;;;;12.43;50.75;99704.70;1667041;85;20957;-61
2022/01/10 04:47:41;;;;;;;13.15;10.05;;;;;;;12.29;50.80;99705.26;1666326;85;21614;-65
2022/01/10 04:50:35;;;;;;;11.18;8.98;;;;;;;12.11;51.30;99712.95;1667063;85;21127;-61
2022/01/10 04:52:44;;;;;;;11.20;8.28;;;;;;;12.66;50.42;99713.33;1662552;85;21097;-60
2022/01/10 04:55:10;;;;;;;14.47;10.08;;;;;;;12.60;50.28;99713.65;1666719;85;21174;-63
2022/01/10 04:57:40;;;;;;;13.08;10.55;;;;;;;12.48;50.49;99709.30;1666848;85;20973;-64
2022/01/10 05:00:09;;;;;;;11.18;8.78;;;;;;;12.54;50.26;99709.75;1666128;85;21598;-62
2022/01/10 05:02:36;;;;;;;12.82;9.20;;;;;;;12.56;50.30;99713.77;1680234;84;20945;-62
2022/01/10 05:05:04;;;;;;;12.93;9.75;;;;;;;12.45;50.20;99716.25;1683320;85;21398;-61
2022/01/10 05:07:31;;;;;;;13.78;9.58;;;;;;;12.19;50.86;99720.56;1663273;85;21134;-61
2022/01/10 05:09:58;;;;;;;15.00;10.72;;;;;;;12.37;50.66;99725.92;1651845;86;21170;-61
2022/01/10 05:12:26;;;;;;;15.15;10.35;;;;;;;12.49;50.18;99724.77;1650753;86;21650;-61
2022/01/10 05:14:53;;;;;;;13.60;10.48;;;;;;;12.64;49.60;99727.91;1648231;86;20984;-60
2022/01/10 05:17:24;;;;;;;14.47;10.98;;;;;;;12.72;49.72;99730.78;1647614;86;21662;-62
2022/01/10 05:19:53;;;;;;;16.70;11.65;;;;;;;13.15;48.68;99732.75;1648390;86;21812;-62
2022/01/10 05:22:23;;;;;;;14.93;12.28;;;;;;;12.99;49.07;99730.62;1647202;86;20920;-62
2022/01/10 05:24:50;;;;;;;15.32;12.15;;;;;;;13.11;48.82;99731.57;1647835;86;21023;-65
2022/01/10 05:27:16;;;;;;;17.37;12.53;;;;;;;13.01;48.94;99725.48;1650376;86;20999;-76
2022/01/10 05:29:43;;;;;;;16.42;11.88;;;;;;;13.36;48.16;99720.61;1649265;85;21107;-65
2022/01/10 05:32:10;;;;;;;17.23;12.07;;;;;;;13.18;48.06;99727.06;1653088;85;21857;-63
2022/01/10 05:34:44;;;;;;;19.87;12.77;;;;;;;13.06;48.69;99729.56;1649300;86;21003;-71
2022/01/10 05:37:11;;;;;;;22.95;14.00;;;;;;;13.13;48.43;99735.56;1639152;86;21746;-73
2022/01/10 05:39:42;;;;;;;22.52;14.83;;;;;;;12.81;48.85;99740.00;1649088;86;22495;-64
2022/01/10 05:42:09;;;;;;;21.73;12.98;;;;;;;12.75;49.22;99738.22;1650482;86;21537;-62
2022/01/10 05:44:37;;;;;;;25.00;13.93;;;;;;;12.94;49.19;99743.55;1639456;86;21228;-62
2022/01/10 05:47:05;;;;;;;20.45;13.00;;;;;;;13.16;48.57;99744.81;1643505;86;20929;-63
2022/01/10 05:49:34;;;;;;;21.40;12.47;;;;;;;13.33;48.35;99749.03;1647232;86;21128;-62
2022/01/10 05:52:01;;;;;;;23.50;14.28;;;;;;;13.05;48.59;99758.57;1648441;86;21125;-61
2022/01/10 05:54:32;;;;;;;23.05;14.15;;;;;;;13.43;48.13;99748.56;1649273;86;20992;-62
2022/01/10 05:57:01;;;;;;;28.87;18.15;;;;;;;13.24;48.24;99749.02;1649852;86;21172;-70
2022/01/10 05:59:28;;;;;;;27.07;18.52;;;;;;;13.28;48.22;99746.27;1650809;86;21518;-63
2022/01/10 06:01:57;;;;;;;28.92;18.20;;;;;;;13.49;47.69;99745.11;1648576;86;21204;-62
2022/01/10 06:04:25;;;;;;;28.38;16.90;;;;;;;13.43;47.78;99741.51;1636312;86;21416;-64
2022/01/10 06:06:55;;;;;;;22.40;16.55;;;;;;;13.45;47.66;99741.28;1644107;86;20976;-72
2022/01/10 06:09:22;;;;;;;21.90;12.75;;;;;;;13.14;48.00;99749.44;1643547;86;22586;-61
2022/01/10 06:11:48;;;;;;;18.42;12.37;;;;;;;13.65;47.35;99754.23;1642988;86;21106;-63
2022/01/10 06:14:17;;;;;;;19.07;12.20;;;;;;;13.68;47.30;99749.37;1639398;86;20984;-62
2022/01/10 06:16:44;;;;;;;16.73;12.18;;;;;;;13.82;47.02;99756.06;1635516;86;21085;-63
2022/01/10 06:19:11;;;;;;;15.90;11.57;;;;;;;13.83;46.90;99756.38;1631589;86;20995;-71
2022/01/10 06:21:38;;;;;;;16.90;11.65;;;;;;;13.85;47.00;99757.45;1634149;86;21145;-60
2022/01/10 06:24:05;;;;;;;20.45;12.73;;;;;;;13.65;47.32;99756.84;1643165;86;20974;-64
2022/01/10 06:26:35;;;;;;;19.50;12.88;;;;;;;13.51;47.21;99756.15;1642239;86;21083;-62
2022/01/10 06:29:02;;;;;;;16.75;11.93;;;;;;;13.71;47.25;99755.45;1648963;86;20977;-66
2022/01/10 06:31:30;;;;;;;18.32;11.55;;;;;;;13.74;47.33;99760.27;1637189;86;21489;-61
2022/01/10 06:34:01;;;;;;;18.75;13.15;;;;;;;13.67;47.34;99758.73;1636420;86;21169;-60
2022/01/10 06:36:30;;;;;;;19.52;13.68;;;;;;;13.59;47.30;99759.80;1649151;86;21502;-61
2022/01/10 06:38:57;;;;;;;20.35;15.13;;;;;;;13.51;47.61;99768.73;1648040;85;21092;-70
2022/01/10 06:41:24;;;;;;;22.30;16.23;;;;;;;13.67;47.59;99772.63;1648626;86;21103;-61
2022/01/10 06:43:50;;;;;;;22.17;16.10;;;;;;;13.61;47.87;99780.84;1648731;86;21083;-62
2022/01/10 06:46:18;;;;;;;21.93;16.02;;;;;;;14.04;47.48;99781.86;1650547;86;21128;-61
2022/01/10 06:48:45;;;;;;;28.40;17.95;;;;;;;13.38;48.23;99784.05;1650530;86;21051;-68
2022/01/10 06:51:11;;;;;;;24.90;16.05;;;;;;;13.69;48.20;99778.46;1640391;86;21222;-71
2022/01/10 06:53:40;;;;;;;26.52;16.35;;;;;;;13.72;47.89;99783.27;1648332;86;21521;-65
2022/01/10 06:56:08;;;;;;;25.68;15.43;;;;;;;14.20;47.43;99782.59;1636162;86;21007;-60
2022/01/10 06:58:36;;;;;;;23.65;15.80;;;;;;;14.31;46.93;99775.83;1646701;86;21220;-60
2022/01/10 07:01:05;;;;;;;27.82;17.65;;;;;;;14.48;46.66;99774.73;1637819;86;21004;-61
2022/01/10 07:03:31;;;;;;;24.50;16.97;;;;;;;14.55;46.66;99776.80;1644516;86;21087;-61
2022/01/10 07:06:00;;;;;;;27.42;17.73;;;;;;;14.79;45.96;99781.13;1647462;86;21653;-62
2022/01/10 07:08:26;;;;;;;27.93;18.62;;;;;;;14.76;46.12;99777.63;1641714;86;21079;-66
2022/01/10 07:10:56;;;;;;;32.55;18.60;;;;;;;13.86;47.49;99779.53;1641087;86;21760;-73
2022/01/10 07:13:25;;;;;;;21.37;15.45;;;;;;;14.23;47.15;99780.84;1644609;86;21016;-72
2022/01/10 07:15:53;;;;;;;20.80;13.25;;;;;;;14.60;46.55;99786.91;1643268;86;21092;-68
2022/01/10 07:18:20;;;;;;;22.82;15.48;;;;;;;14.80;46.20;99791.90;1646407;86;21031;-64
2022/01/10 07:20:49;;;;;;;23.42;15.48;;;;;;;15.04;45.70;99788.08;1642621;86;21009;-71
2022/01/10 07:23:18;;;;;;;23.83;15.78;;;;;;;14.80;45.87;99797.66;1650135;86;21094;-63
2022/01/10 07:25:46;;;;;;;21.85;15.28;;;;;;;14.93;45.53;99801.95;1644431;86;21060;-65
2022/01/10 07:28:14;;;;;;;21.87;14.43;;;;;;;14.84;45.41;99793.05;1644162;86;21596;-66
2022/01/10 07:30:40;;;;;;;25.72;17.05;;;;;;;14.82;45.48;99793.80;1647132;86;21040;-68
2022/01/10 07:33:08;;;;;;;20.00;14.33;;;;;;;14.72;45.29;99786.97;1647584;86;21044;-65
2022/01/10 07:35:35;;;;;;;19.02;12.65;;;;;;;14.75;45.07;99787.84;1648543;86;21124;-67
2022/01/10 07:38:02;;;;;;;20.80;12.80;;;;;;;14.44;45.46;99788.80;1646287;86;21137;-67
2022/01/10 07:40:28;;;;;;;17.62;11.63;;;;;;;14.27;45.84;99791.70;1648074;86;21216;-65
2022/01/10 07:42:55;;;;;;;17.75;11.95;;;;;;;14.29;45.97;99787.05;1648885;86;21577;-66
2022/01/10 07:45:23;;;;;;;15.83;11.75;;;;;;;14.21;46.19;99786.84;1648321;86;21094;-69
2022/01/10 07:47:50;;;;;;;16.35;10.08;;;;;;;14.30;45.99;99781.58;1649319;86;21139;-65
2022/01/10 07:50:16;;;;;;;15.90;10.13;;;;;;;14.26;45.74;99782.24;1650063;86;22027;-65
2022/01/10 07:52:46;;;;;;;14.90;10.03;;;;;;;14.25;45.96;99784.58;1650341;86;21545;-68
2022/01/10 07:55:15;;;;;;;17.20;11.05;;;;;;;14.17;46.00;99793.53;1640885;86;20969;-70
2022/01/10 07:57:42;;;;;;;17.12;12.20;;;;;;;14.45;45.62;99797.46;1643536;86;21514;-72
2022/01/10 08:00:11;;;;;;;18.98;13.00;;;;;;;15.02;44.84;99786.97;1648549;86;21169;-71
2022/01/10 08:02:41;;;;;;;16.62;11.43;;;;;;;15.29;44.31;99776.88;1645618;86;21128;-68
2022/01/10 08:05:09;;;;;;;14.73;11.38;;;;;;;15.32;43.84;99774.33;1647176;86;21008;-72
2022/01/10 08:07:36;;;;;;;17.32;13.15;;;;;;;15.31;43.51;99768.80;1650420;86;21085;-71
2022/01/10 08:10:06;;;;;;;17.35;11.83;;;;;;;14.33;45.44;99782.46;1649828;86;21134;-66
2022/01/10 08:12:33;;;;;;;15.38;11.88;;;;;;;14.25;45.79;99773.58;1648741;86;21156;-71
2022/01/10 08:14:59;;;;;;;16.90;12.33;;;;;;;14.47;45.54;99771.80;1643256;86;21068;-67
2022/01/10 08:17:26;;;;;;;18.57;12.78;;;;;;;14.96;44.83;99762.91;1650997;85;21115;-73
2022/01/10 08:19:53;;;;;;;19.05;12.60;;;;;;;13.93;45.74;99757.17;1648249;86;21228;-68
2022/01/10 08:22:19;;;;;;;16.75;12.37;;;;;;;13.55;47.11;99752.88;1642293;86;21028;-66
2022/01/10 08:24:47;;;;;;;17.57;13.18;;;;;;;14.01;46.72;99756.87;1643877;86;21120;-65
2022/01/10 08:27:14;;;;;;;20.17;13.43;;;;;;;14.01;46.43;99752.95;1649229;86;21549;-67
2022/01/10 08:29:41;;;;;;;20.02;13.60;;;;;;;14.33;45.98;99748.38;1646188;86;20971;-70
2022/01/10 08:32:09;;;;;;;20.88;14.07;;;;;;;13.93;46.41;99745.38;1649938;86;21090;-68
2022/01/10 08:34:35;;;;;;;20.02;14.18;;;;;;;14.04;46.24;99742.03;1646355;86;21112;-65
2022/01/10 08:37:03;;;;;;;18.85;13.18;;;;;;;14.25;45.82;99748.67;1649815;86;21312;-65
2022/01/10 08:39:30;;;;;;;17.67;12.43;;;;;;;14.31;45.88;99746.98;1644775;86;21503;-65
2022/01/10 08:41:57;;;;;;;14.78;11.53;;;;;;;13.46;47.65;99737.16;1648279;86;21137;-67
2022/01/10 08:44:24;;;;;;;15.23;10.85;;;;;;;14.04;46.85;99742.03;1649642;86;21706;-65
2022/01/10 08:46:50;;;;;;;13.53;10.43;;;;;;;14.47;46.15;99749.03;1648333;86;21129;-66
2022/01/10 08:49:16;;;;;;;15.15;9.58;;;;;;;14.16;45.84;99747.87;1649631;86;21157;-71
2022/01/10 08:51:46;;;;;;;10.75;8.00;;;;;;;14.31;45.74;99749.61;1649376;86;21122;-71
2022/01/10 08:54:12;;;;;;;9.10;6.80;;;;;;;13.95;46.40;99753.04;1646756;86;21075;-65
2022/01/10 08:56:42;;;;;;;11.60;7.50;;;;;;;14.18;46.12;99759.74;1648938;86;21018;-64
2022/01/10 08:59:11;;;;;;;12.37;8.50;;;;;;;14.34;45.82;99759.14;1648066;86;21067;-64
2022/01/10 09:01:42;;;;;;;13.55;7.58;;;;;;;14.08;46.29;99752.38;1645378;86;21163;-71
2022/01/10 09:04:16;;;;;;;10.90;7.87;;;;;;;14.24;46.01;99761.98;1623033;86;21186;-65
2022/01/10 09:06:46;;;;;;;12.40;8.35;;;;;;;14.53;45.26;99749.98;1603135;88;21094;-64
2022/01/10 09:09:15;;;;;;;12.00;8.95;;;;;;;13.34;46.94;99750.15;1591146;89;21012;-66
2022/01/10 09:11:46;;;;;;;14.95;10.35;;;;;;;13.15;47.42;99762.84;1605687;88;21126;-65
2022/01/10 09:14:14;;;;;;;13.35;9.53;;;;;;;12.91;48.24;99759.95;1604522;88;21156;-68
2022/01/10 09:16:43;;;;;;;12.82;9.70;;;;;;;13.05;48.18;99755.95;1607099;88;21374;-67
2022/01/10 09:19:10;;;;;;;14.23;9.85;;;;;;;13.06;48.22;99763.58;1627633;87;21080;-69
2022/01/10 09:21:37;;;;;;;13.58;8.93;;;;;;;13.18;48.15;99757.16;1628782;86;21105;-65
2022/01/10 09:24:05;;;;;;;12.98;9.03;;;;;;;13.19;48.42;99752.24;1630060;87;21739;-67
2022/01/10 09:26:32;;;;;;;12.15;8.65;;;;;;;13.08;48.14;99747.69;1621610;87;21169;-68
2022/01/10 09:28:59;;;;;;;11.88;8.48;;;;;;;13.00;49.18;99753.18;1623948;88;21130;-67
2022/01/10 09:31:26;;;;;;;12.47;7.90;;;;;;;12.93;49.32;99761.06;1627016;87;21011;-72
2022/01/10 09:33:55;;;;;;;12.90;9.08;;;;;;;13.43;48.86;99762.45;1626779;87;21146;-67
2022/01/10 09:36:25;;;;;;;15.70;9.58;;;;;;;13.30;48.98;99758.13;1625612;88;21600;-69
2022/01/10 09:38:55;;;;;;;11.78;8.80;;;;;;;13.49;48.97;99759.50;1622946;87;21164;-67
2022/01/10 09:41:22;;;;;;;15.50;9.78;;;;;;;13.68;48.37;99767.70;1607948;89;21086;-67
2022/01/10 09:43:52;;;;;;;17.67;11.22;;;;;;;13.80;47.82;99751.56;1627034;87;21137;-66
2022/01/10 09:46:20;;;;;;;16.82;10.72;;;;;;;14.00;47.64;99751.87;1625186;86;22640;-65
2022/01/10 09:48:48;;;;;;;12.15;9.05;;;;;;;14.15;47.60;99748.38;1629248;86;21616;-66
2022/01/10 09:51:15;;;;;;;13.43;8.73;;;;;;;13.87;47.55;99744.44;1627928;87;21209;-70
2022/01/10 09:53:42;;;;;;;11.53;8.03;;;;;;;13.94;47.79;99748.80;1621216;86;21142;-67
2022/01/10 09:56:09;;;;;;;11.68;8.33;;;;;;;13.88;47.84;99743.92;1620423;87;21169;-69
2022/01/10 09:58:36;;;;;;;10.95;8.30;;;;;;;14.25;47.18;99738.19;1620394;87;21121;-68
2022/01/10 10:01:03;;;;;;;12.55;8.90;;;;;;;13.93;47.61;99741.45;1625523;87;21145;-72
2022/01/10 10:03:31;;;;;;;13.10;9.40;;;;;;;13.86;47.41;99744.16;1634677;86;21177;-72
2022/01/10 10:05:59;;;;;;;12.95;9.78;;;;;;;14.05;46.83;99745.45;1647127;86;21110;-68
2022/01/10 10:08:27;;;;;;;11.50;8.03;;;;;;;14.31;46.21;99742.53;1649234;86;20916;-67
2022/01/10 10:10:55;;;;;;;10.85;7.67;;;;;;;14.30;45.92;99738.84;1647868;86;21557;-68
2022/01/10 10:13:25;;;;;;;10.35;7.83;;;;;;;14.18;45.91;99738.77;1644049;85;21064;-68
2022/01/10 10:15:51;;;;;;;12.15;8.80;;;;;;;13.97;46.16;99727.41;1643904;86;21275;-66
2022/01/10 10:18:21;;;;;;;15.25;10.63;;;;;;;13.91;46.37;99723.05;1622815;86;21117;-67
2022/01/10 10:20:47;;;;;;;14.83;9.60;;;;;;;13.86;46.77;99722.38;1647464;86;21080;-67
2022/01/10 10:23:16;;;;;;;12.85;8.80;;;;;;;13.88;46.72;99727.70;1648397;86;21158;-71
2022/01/10 10:25:53;;;;;;;11.78;8.98;;;;;;;13.92;47.18;99723.34;1648255;86;22458;-69
2022/01/10 10:28:21;;;;;;;11.95;8.85;;;;;;;13.71;47.47;99716.17;1642307;86;21165;-67
2022/01/10 10:30:48;;;;;;;12.68;8.48;;;;;;;13.99;47.10;99718.31;1647126;86;20950;-66
2022/01/10 10:33:26;;;;;;;12.95;8.80;;;;;;;14.18;46.67;99717.80;1649333;86;21036;-67
2022/01/10 10:35:58;;;;;;;14.18;9.18;;;;;;;14.08;46.97;99714.38;1648262;86;21624;-66
2022/01/10 10:38:26;;;;;;;12.45;8.05;;;;;;;14.36;46.40;99715.68;1648122;86;21005;-66
2022/01/10 10:40:53;;;;;;;13.55;9.80;;;;;;;14.50;46.37;99721.57;1640030;86;21142;-72
2022/01/10 10:43:20;;;;;;;13.32;8.93;;;;;;;14.39;46.56;99728.33;1645704;86;21003;-64
2022/01/10 10:45:47;;;;;;;14.35;11.05;;;;;;;13.69;47.77;99727.39;1646125;86;21089;-65
2022/01/10 10:48:14;;;;;;;15.10;10.58;;;;;;;13.96;47.41;99728.43;1648078;86;21192;-66
2022/01/10 10:50:44;;;;;;;16.20;10.82;;;;;;;13.77;47.84;99732.85;1622588;86;21075;-66
2022/01/10 10:53:13;;;;;;;20.57;14.28;;;;;;;14.08;47.48;99735.85;1647325;86;22373;-68
2022/01/10 10:55:47;;;;;;;16.40;10.30;;;;;;;14.56;46.55;99737.75;1649075;86;22104;-66
2022/01/10 10:58:14;;;;;;;14.53;9.75;;;;;;;14.69;46.16;99738.08;1647743;86;21879;-65
2022/01/10 11:00:40;;;;;;;12.05;9.43;;;;;;;14.62;46.01;99736.05;1650997;86;21502;-67
2022/01/10 11:03:15;;;;;;;11.68;9.00;;;;;;;14.94;45.74;99743.19;1644549;85;20967;-68
2022/01/10 11:05:42;;;;;;;14.28;10.98;;;;;;;15.13;45.35;99744.72;1650437;85;21148;-66
2022/01/10 11:08:08;;;;;;;19.57;13.38;;;;;;;15.06;45.40;99751.38;1682952;83;21054;-66
2022/01/10 11:10:36;;;;;;;14.38;10.05;;;;;;;15.35;44.83;99749.45;1682885;83;21501;-67
2022/01/10 11:13:02;;;;;;;14.40;10.43;;;;;;;15.77;44.01;99744.92;1648806;85;21158;-68
2022/01/10 11:15:31;;;;;;;15.63;10.90;;;;;;;14.41;46.43;99755.66;1642376;85;22623;-66
2022/01/10 11:18:02;;;;;;;17.20;10.93;;;;;;;14.19;47.16;99749.54;1641458;83;21244;-66
2022/01/10 11:20:30;;;;;;;14.93;10.45;;;;;;;14.11;47.27;99753.25;1648441;85;21011;-66
2022/01/10 11:23:01;;;;;;;19.85;13.62;;;;;;;14.60;46.67;99745.45;1624024;86;21506;-69
2022/01/10 11:25:39;;;;;;;15.72;10.85;;;;;;;14.65;46.60;99735.09;1649912;85;21038;-66
2022/01/10 11:28:11;;;;;;;16.25;10.88;;;;;;;14.41;46.54;99737.30;1649169;86;21113;-68
2022/01/10 11:30:45;;;;;;;14.65;11.22;;;;;;;14.67;46.04;99731.75;1659401;85;21163;-68
2022/01/10 11:33:22;;;;;;;13.83;9.33;;;;;;;14.08;46.77;99727.48;1645172;85;22146;-69